Providence Village's Hourly Summary for Thursday, May 10, 2018
Hour Temp
(f)
RH
(%)
Solar Rad.
(MJ/m2)
Rainfall
(in)
Wind
(mph)
5/10/2018 12:00 AM 76 51 0 0 2.79
5/10/2018 1:00 AM 76 51 0 0 6.46
5/10/2018 2:00 AM 75 49 0 0 8.22
5/10/2018 3:00 AM 74 49 0 0 8.6
5/10/2018 4:00 AM 72 53 0 0 7.97
5/10/2018 5:00 AM 71 53 0 0 7.65
5/10/2018 6:00 AM 69 58 0 0 5.92
5/10/2018 7:00 AM 68 66 0.01 0 6.55
5/10/2018 8:00 AM 67 74 0.31 0 8.03
5/10/2018 9:00 AM 69 73 0.56 0 9.1
5/10/2018 10:00 AM 72 65 1.5 0 6.36
5/10/2018 11:00 AM 75 59 2.23 0 4.58
5/10/2018 12:00 PM 77 52 2.74 0 7.38
5/10/2018 1:00 PM 79 44 3.12 0 9.84
5/10/2018 2:00 PM 81 41 3.21 0 8.88
5/10/2018 3:00 PM 82 41 3.11 0 9.27
5/10/2018 4:00 PM 83 41 2.6 0 9.11
5/10/2018 5:00 PM 84 38 2.22 0 9.12
5/10/2018 6:00 PM 83 39 1.82 0 9.79
5/10/2018 7:00 PM 83 44 1.06 0 9.79
5/10/2018 8:00 PM 81 46 0.35 0 8.58
5/10/2018 9:00 PM 80 47 0.02 0 7.05
5/10/2018 10:00 PM 79 48 0 0 6.98
5/10/2018 11:00 PM 78 52 0 0 6
Data Summary 76 51 24.86 0.00 7.67